createdAt,value
2016-10-18T00:00:51.018Z,67.14
2016-10-18T00:02:00.690Z,67.14
2016-10-18T00:03:10.711Z,67.14
2016-10-18T00:04:21.051Z,67.14
2016-10-18T00:05:31.067Z,67.24
2016-10-18T00:06:41.393Z,67.05
2016-10-18T00:07:51.379Z,67.24
2016-10-18T00:09:01.673Z,67.34
2016-10-18T00:10:11.342Z,67.34
2016-10-18T00:11:21.667Z,66.86
2016-10-18T00:12:31.966Z,67.05
2016-10-18T00:13:42.265Z,67.34
2016-10-18T00:14:52.560Z,67.14
2016-10-18T00:16:02.572Z,66.96
2016-10-18T00:17:12.870Z,67.14
2016-10-18T00:18:22.857Z,66.86
2016-10-18T00:19:32.863Z,67.34
2016-10-18T00:20:43.159Z,67.24
2016-10-18T00:21:53.473Z,67.05
2016-10-18T00:23:03.766Z,67.14
2016-10-18T00:24:14.086Z,67.14
2016-10-18T00:25:24.385Z,67.14
2016-10-18T00:26:34.728Z,67.34
2016-10-18T00:27:45.010Z,67.24
2016-10-18T00:28:54.991Z,66.96
2016-10-18T00:30:04.959Z,67.14
2016-10-18T00:31:14.942Z,66.96
2016-10-18T00:32:24.921Z,67.24
2016-10-18T00:33:35.239Z,67.05
2016-10-18T00:34:45.225Z,66.96
2016-10-18T00:35:55.217Z,67.14
2016-10-18T00:37:05.199Z,67.43
2016-10-18T00:38:14.886Z,67.14
2016-10-18T00:39:24.863Z,67.53
2016-10-18T00:40:35.145Z,67.53
2016-10-18T00:41:44.491Z,67.14
2016-10-18T00:42:54.798Z,67.53
2016-10-18T00:44:04.474Z,67.24
2016-10-18T00:45:14.453Z,67.34
2016-10-18T00:46:24.730Z,67.43
2016-10-18T00:47:35.045Z,67.53
2016-10-18T00:48:45.042Z,67.53
2016-10-18T00:49:55.009Z,67.34
2016-10-18T00:51:05.307Z,67.05
2016-10-18T00:52:15.607Z,67.14
2016-10-18T00:53:25.894Z,67.14
2016-10-18T00:54:35.867Z,66.96
2016-10-18T00:55:46.158Z,67.14
2016-10-18T00:56:55.832Z,67.05
2016-10-18T00:58:06.111Z,67.14
2016-10-18T00:59:16.085Z,67.14
2016-10-18T01:00:25.986Z,67.53
2016-10-18T01:01:35.667Z,67.63
2016-10-18T01:02:45.645Z,67.53
2016-10-18T01:03:55.626Z,67.43
2016-10-18T01:05:05.912Z,67.43
2016-10-18T01:06:16.073Z,67.24
2016-10-18T01:07:26.060Z,67.43
2016-10-18T01:08:36.348Z,67.24
2016-10-18T01:09:46.624Z,67.4
2016-10-18T01:10:56.591Z,67.21
2016-10-18T01:12:06.893Z,67.49
2016-10-18T01:13:17.202Z,67.21
2016-10-18T01:14:27.177Z,67.21
2016-10-18T01:15:37.470Z,67.21
2016-10-18T01:16:47.807Z,67.11
2016-10-18T01:17:58.102Z,67.02
2016-10-18T01:19:07.809Z,67.02
2016-10-18T01:20:18.089Z,67.21
2016-10-18T01:21:28.229Z,66.83
2016-10-18T01:22:38.215Z,67.49
2016-10-18T01:23:48.530Z,67.21
2016-10-18T01:24:58.823Z,67.21
2016-10-18T01:26:09.112Z,67.11
2016-10-18T01:27:19.417Z,66.92
2016-10-18T01:28:29.743Z,67.11
2016-10-18T01:29:40.034Z,67.11
2016-10-18T01:30:50.317Z,67.21
2016-10-18T01:32:00.293Z,67.11
2016-10-18T01:33:10.275Z,66.92
2016-10-18T01:34:20.552Z,67.11
2016-10-18T01:35:30.533Z,67.02
2016-10-18T01:36:40.822Z,66.92
2016-10-18T01:37:51.108Z,67.3
2016-10-18T01:39:01.083Z,67.11
2016-10-18T01:40:11.069Z,67.11
2016-10-18T01:41:21.045Z,67.11
2016-10-18T01:42:31.083Z,67.11
2016-10-18T01:43:41.362Z,67.11
2016-10-18T01:44:51.328Z,67.3
2016-10-18T01:46:01.308Z,66.92
2016-10-18T01:47:11.600Z,67.11
2016-10-18T01:48:21.267Z,67.11
2016-10-18T01:49:30.633Z,66.92
2016-10-18T01:50:40.906Z,67.11
2016-10-18T01:51:51.197Z,67.02
2016-10-18T01:53:01.209Z,66.92
2016-10-18T01:54:11.516Z,67.11
2016-10-18T01:55:21.488Z,67.11
2016-10-18T01:56:31.175Z,67.02
2016-10-18T01:57:41.472Z,66.92
2016-10-18T01:58:51.139Z,67.11
2016-10-18T02:00:01.439Z,67.11
2016-10-18T02:01:11.131Z,67.21
2016-10-18T02:02:21.437Z,67.3
2016-10-18T02:03:31.739Z,67.11
2016-10-18T02:04:42.071Z,67.11
2016-10-18T02:05:52.043Z,67.11
2016-10-18T02:07:02.329Z,67.11
2016-10-18T02:08:12.320Z,67.11
2016-10-18T02:09:22.612Z,67.11
2016-10-18T02:10:32.944Z,67.11
2016-10-18T02:11:43.227Z,67.4
2016-10-18T02:12:53.191Z,67.11
2016-10-18T02:14:03.475Z,67.49
2016-10-18T02:15:13.457Z,67.27
2016-10-18T02:16:23.753Z,67.08
2016-10-18T02:17:33.779Z,67.55
2016-10-18T02:18:44.083Z,67.27
2016-10-18T02:19:54.359Z,67.18
2016-10-18T02:21:04.385Z,67.18
2016-10-18T02:22:14.695Z,67.46
2016-10-18T02:23:24.989Z,67.46
2016-10-18T02:24:34.980Z,67.46
2016-10-18T02:25:45.267Z,67.08
2016-10-18T02:26:55.555Z,67.08
2016-10-18T02:28:05.540Z,66.99
2016-10-18T02:29:15.196Z,66.99
2016-10-18T02:30:25.200Z,66.99
2016-10-18T02:31:35.491Z,67.08
2016-10-18T02:32:45.816Z,67.18
2016-10-18T02:33:55.487Z,67.36
2016-10-18T02:35:05.777Z,67.27
2016-10-18T02:36:15.767Z,66.79
2016-10-18T02:37:25.739Z,67.27
2016-10-18T02:38:35.752Z,67.08
2016-10-18T02:39:46.051Z,66.99
2016-10-18T02:40:55.722Z,67.18
2016-10-18T02:42:06.247Z,66.79
2016-10-18T02:43:16.223Z,67.27
2016-10-18T02:44:26.213Z,67.08
2016-10-18T02:45:36.182Z,66.79
2016-10-18T02:46:46.464Z,67.33
2016-10-18T02:47:56.746Z,67.24
2016-10-18T02:49:06.720Z,66.95
2016-10-18T02:50:16.691Z,66.95
2016-10-18T02:51:26.358Z,67.14
2016-10-18T02:52:36.026Z,67.05
2016-10-18T02:53:46.002Z,67.05
2016-10-18T02:54:56.278Z,67.05
2016-10-18T02:56:06.253Z,67.05
2016-10-18T02:57:16.571Z,67.14
2016-10-18T02:58:26.839Z,67.24
2016-10-18T02:59:36.562Z,67.05
2016-10-18T03:00:46.533Z,67.14
2016-10-18T03:33:10.073Z,63.6
2016-10-18T03:34:20.035Z,64.56
2016-10-18T03:35:30.003Z,65.8
2016-10-18T03:36:39.664Z,66.08
2016-10-18T03:37:49.626Z,66.94
2016-10-18T03:38:59.948Z,67.45
2016-10-18T03:40:10.245Z,67.64
2016-10-18T03:41:20.232Z,67.35
2016-10-18T03:42:30.509Z,67.64
2016-10-18T03:43:40.228Z,67.64
2016-10-18T03:44:50.221Z,67.58
2016-10-18T03:46:00.502Z,67.77
2016-10-18T03:47:10.190Z,67.2
2016-10-18T03:48:20.201Z,67.39
2016-10-18T03:49:30.208Z,67.42
2016-10-18T03:50:40.506Z,67.52
2016-10-18T03:51:50.790Z,67.71
2016-10-18T03:53:01.082Z,67.52
2016-10-18T03:54:11.407Z,66.94
2016-10-18T03:55:21.390Z,66.75
2016-10-18T03:56:31.402Z,67.65
2016-10-18T03:57:41.678Z,67.07
2016-10-18T03:58:51.669Z,66.98
2016-10-18T04:00:01.641Z,66.98
2016-10-18T04:01:11.309Z,66.88
2016-10-18T04:02:21.605Z,66.88
2016-10-18T04:03:31.586Z,67.07
2016-10-18T04:04:41.553Z,67.17
2016-10-18T04:05:51.850Z,67.36
2016-10-18T04:07:02.154Z,67.17
2016-10-18T04:08:12.478Z,67.27
2016-10-18T04:09:22.162Z,67.11
2016-10-18T04:10:31.518Z,66.98
2016-10-18T04:11:41.818Z,66.78
2016-10-18T04:12:51.475Z,67.01
2016-10-18T04:14:01.147Z,66.82
2016-10-18T04:15:11.122Z,66.78
2016-10-18T04:16:21.423Z,66.88
2016-10-18T04:17:31.698Z,67.01
2016-10-18T04:18:42.001Z,67.17
2016-10-18T04:19:51.976Z,66.98
2016-10-18T04:21:01.968Z,67.07
2016-10-18T04:22:12.233Z,67.01
2016-10-18T04:23:22.561Z,67.07
2016-10-18T04:24:32.865Z,67.11
2016-10-18T04:25:42.546Z,67.01
2016-10-18T04:26:52.519Z,67.3
2016-10-18T04:28:01.882Z,67.21
2016-10-18T04:29:12.159Z,66.72
2016-10-18T04:30:22.450Z,66.53
2016-10-18T04:31:32.436Z,66.44
2016-10-18T04:32:42.724Z,66.72
2016-10-18T04:33:53.000Z,66.82
2016-10-18T04:35:02.981Z,66.78
2016-10-18T04:36:12.957Z,66.78
2016-10-18T04:37:22.945Z,66.53
2016-10-18T04:38:32.930Z,66.82
2016-10-18T04:39:43.233Z,66.53
2016-10-18T04:40:52.935Z,66.53
2016-10-18T04:42:03.216Z,66.78
2016-10-18T04:43:13.499Z,66.88
2016-10-18T04:44:23.787Z,66.69
2016-10-18T04:45:34.067Z,66.82
2016-10-18T04:46:44.032Z,66.72
2016-10-18T04:47:54.320Z,66.6
2016-10-18T04:49:04.316Z,66.5
2016-10-18T04:50:14.295Z,66.6
2016-10-18T04:51:24.591Z,66.5
2016-10-18T04:52:34.886Z,66.6
2016-10-18T04:53:45.172Z,66.69
2016-10-18T04:54:54.838Z,66.78
2016-10-18T04:56:04.844Z,66.69
2016-10-18T04:57:15.147Z,66.88
2016-10-18T04:58:25.127Z,66.88
2016-10-18T04:59:35.411Z,66.78
2016-10-18T05:00:45.707Z,66.78
2016-10-18T05:01:55.997Z,67.01
2016-10-18T05:03:06.329Z,67.01
2016-10-18T05:04:16.634Z,66.53
2016-10-18T05:05:26.943Z,66.53
2016-10-18T05:06:37.269Z,66.5
2016-10-18T05:07:47.246Z,66.5
2016-10-18T05:08:57.781Z,66.82
2016-10-18T05:10:08.053Z,66.98
2016-10-18T05:11:18.329Z,67.01
2016-10-18T05:12:28.621Z,66.5
2016-10-18T05:13:38.612Z,66.72
2016-10-18T05:14:48.734Z,66.25
2016-10-18T05:15:58.695Z,66.44
2016-10-18T05:17:08.987Z,66.5
2016-10-18T05:18:19.288Z,66.82
2016-10-18T05:19:29.272Z,66.92
2016-10-18T05:20:39.292Z,66.22
2016-10-18T05:21:49.815Z,66.92
2016-10-18T05:22:59.831Z,66.53
2016-10-18T05:24:09.836Z,66.5
2016-10-18T05:25:20.153Z,66.44
2016-10-18T05:26:30.430Z,66.41
2016-10-18T05:27:40.151Z,66.78
2016-10-18T05:28:50.423Z,66.5
2016-10-18T05:30:00.419Z,66.78
2016-10-18T05:31:10.706Z,66.5
2016-10-18T05:32:20.998Z,66.5
2016-10-18T05:33:30.669Z,66.78
2016-10-18T05:34:40.947Z,66.78
2016-10-18T05:35:50.937Z,66.5
2016-10-18T05:37:00.932Z,66.5
2016-10-18T05:38:10.921Z,66.5
2016-10-18T05:39:19.974Z,66.69
2016-10-18T05:40:30.265Z,66.5
2016-10-18T05:41:40.248Z,67.07
2016-10-18T05:42:50.538Z,66.98
2016-10-18T05:44:00.512Z,66.78
2016-10-18T05:45:10.506Z,67.07
2016-10-18T05:46:20.808Z,66.98
2016-10-18T05:47:31.091Z,66.98
2016-10-18T05:48:41.376Z,66.98
2016-10-18T05:49:51.663Z,66.78
2016-10-18T05:51:01.949Z,66.98
2016-10-18T05:52:11.617Z,67.07
2016-10-18T05:53:21.604Z,66.98
2016-10-18T05:54:31.599Z,67.17
2016-10-18T05:55:41.262Z,67.07
2016-10-18T05:56:50.624Z,66.98
2016-10-18T05:58:00.637Z,67.07
2016-10-18T05:59:10.621Z,66.98
2016-10-18T06:00:20.308Z,67.07
2016-10-18T06:01:30.595Z,67.17
2016-10-18T06:02:40.615Z,67.07
2016-10-18T06:03:50.907Z,66.98
2016-10-18T06:05:01.201Z,66.69
2016-10-18T06:06:11.496Z,66.69
2016-10-18T06:07:21.495Z,66.6
2016-10-18T06:08:31.776Z,66.69
2016-10-18T06:09:41.463Z,66.6
2016-10-18T06:10:51.453Z,66.47
2016-10-18T06:12:01.426Z,66.88
2016-10-18T06:13:11.394Z,66.56
2016-10-18T06:14:21.710Z,66.5
2016-10-18T06:15:31.391Z,66.5
2016-10-18T06:16:41.676Z,66.28
2016-10-18T06:17:51.674Z,66.75
2016-10-18T06:19:01.966Z,66.38
2016-10-18T06:20:12.236Z,66.47
2016-10-18T06:21:22.519Z,66.75
2016-10-18T06:22:32.808Z,66.28
2016-10-18T06:23:43.091Z,66.5
2016-10-18T06:24:53.398Z,66.47
2016-10-18T06:26:02.772Z,66.41
2016-10-18T06:27:12.762Z,66.41
2016-10-18T06:28:22.728Z,66.38
2016-10-18T06:29:32.720Z,66.22
2016-10-18T06:30:42.711Z,66.12
2016-10-18T06:31:52.994Z,66.28
2016-10-18T06:33:03.272Z,66.18
2016-10-18T06:34:12.953Z,66.38
2016-10-18T06:35:23.253Z,66.56
2016-10-18T06:36:33.236Z,66.5
2016-10-18T06:37:43.230Z,66.38
2016-10-18T06:38:53.225Z,66.41
2016-10-18T06:40:03.268Z,66.22
2016-10-18T06:41:13.549Z,66.41
2016-10-18T06:42:23.827Z,66.12
2016-10-18T06:43:33.806Z,66.66
2016-10-18T06:44:42.903Z,66.22
2016-10-18T06:45:52.881Z,66.88
2016-10-18T06:47:03.168Z,66.88
2016-10-18T06:48:13.477Z,66.22
2016-10-18T06:49:23.763Z,66.22
2016-10-18T06:50:34.128Z,66.88
2016-10-18T06:51:44.144Z,66.88
2016-10-18T06:52:54.120Z,66.69
2016-10-18T06:54:04.112Z,66.5
2016-10-18T06:55:14.399Z,66.5
2016-10-18T06:56:24.691Z,66.78
2016-10-18T06:57:35.018Z,66.5
2016-10-18T06:58:44.700Z,66.31
2016-10-18T06:59:54.735Z,66.5
2016-10-18T07:01:04.709Z,66.6
2016-10-18T07:02:14.373Z,66.88
2016-10-18T07:03:24.647Z,66.31
2016-10-18T07:04:34.942Z,67.07
2016-10-18T07:05:45.249Z,66.31
2016-10-18T07:06:55.227Z,66.22
2016-10-18T07:08:04.931Z,66.31
2016-10-18T07:09:14.605Z,66.85
2016-10-18T07:10:24.581Z,66.5
2016-10-18T07:11:34.258Z,67.04
2016-10-18T07:12:44.570Z,66.94
2016-10-18T07:13:54.255Z,66.85
2016-10-18T07:15:04.232Z,66.94
2016-10-18T07:16:14.199Z,66.85
2016-10-18T07:17:23.860Z,66.94
2016-10-18T07:18:33.543Z,66.85
2016-10-18T07:19:43.514Z,66.94
2016-10-18T07:20:52.890Z,67.14
2016-10-18T07:22:02.577Z,67.42
2016-10-18T07:23:12.568Z,67.04
2016-10-18T07:24:21.977Z,67.04
2016-10-18T07:25:32.268Z,67.33
2016-10-18T07:26:42.596Z,66.91
2016-10-18T07:27:52.581Z,67.14
2016-10-18T07:29:02.866Z,66.75
2016-10-18T07:30:12.847Z,66.91
2016-10-18T07:31:23.136Z,67
2016-10-18T07:32:33.422Z,66.82
2016-10-18T07:33:43.383Z,66.47
2016-10-18T07:34:53.066Z,66.38
2016-10-18T07:36:03.046Z,66.56
2016-10-18T07:37:13.337Z,66.09
2016-10-18T07:38:23.615Z,66.28
2016-10-18T07:39:33.945Z,66.28
2016-10-18T07:40:43.023Z,66.75
2016-10-18T07:41:53.322Z,66.47
2016-10-18T07:43:03.299Z,66.18
2016-10-18T07:44:13.285Z,66.56
2016-10-18T07:45:23.605Z,65.8
2016-10-18T07:46:33.927Z,66.85
2016-10-18T07:47:44.262Z,66.47
2016-10-18T07:48:54.247Z,66.66
2016-10-18T07:50:03.603Z,66.85
2016-10-18T07:51:13.593Z,66.75
2016-10-18T07:52:23.584Z,66.66
2016-10-18T07:53:33.583Z,65.89
2016-10-18T07:54:43.858Z,66.56
2016-10-18T07:55:54.136Z,66.75
2016-10-18T07:57:04.162Z,66.75
2016-10-18T07:58:14.152Z,66.18
2016-10-18T07:59:24.171Z,66.09
2016-10-18T08:00:34.447Z,66.38
2016-10-18T08:01:44.429Z,66.28
2016-10-18T08:02:54.420Z,66.75
2016-10-18T08:04:04.394Z,66.28
2016-10-18T08:05:14.395Z,66.75
2016-10-18T08:06:24.681Z,66.47
2016-10-18T08:07:34.979Z,66.47
2016-10-18T08:08:44.970Z,66.85
2016-10-18T08:09:55.256Z,66.28
2016-10-18T08:11:05.267Z,66.28
2016-10-18T08:12:15.549Z,66.56
2016-10-18T08:13:25.836Z,66.18
2016-10-18T08:14:35.836Z,66.28
2016-10-18T08:15:45.820Z,66.28
2016-10-18T08:16:55.800Z,66.47
2016-10-18T08:18:05.484Z,66.56
2016-10-18T08:19:15.454Z,66.56
2016-10-18T08:20:25.121Z,66.47
2016-10-18T08:21:35.098Z,66.28
2016-10-18T08:22:44.759Z,66.66
2016-10-18T08:23:54.747Z,66.56
2016-10-18T08:25:05.107Z,66.56
2016-10-18T08:26:15.075Z,66.75
2016-10-18T08:27:25.045Z,66.47
2016-10-18T08:28:35.342Z,66.28
2016-10-18T08:29:45.016Z,66.28
2016-10-18T08:30:55.305Z,66.38
2016-10-18T08:32:05.285Z,66.47
2016-10-18T08:33:15.574Z,66.66
2016-10-18T08:34:25.579Z,66.28
2016-10-18T08:35:35.551Z,66.38
2016-10-18T08:36:45.840Z,66.47
2016-10-18T08:37:55.514Z,66.28
2016-10-18T08:39:05.823Z,66.28
2016-10-18T08:40:16.106Z,66.47
2016-10-18T08:41:26.377Z,66.47
2016-10-18T08:42:36.368Z,66.38
2016-10-18T08:43:46.683Z,66.09
2016-10-18T08:44:56.357Z,66.09
2016-10-18T08:46:06.043Z,66.09
2016-10-18T08:47:16.005Z,66.09
2016-10-18T08:48:26.022Z,65.99
2016-10-18T08:49:35.998Z,65.99
2016-10-18T08:50:46.270Z,66.31
2016-10-18T08:51:55.643Z,66.6
2016-10-18T08:53:05.660Z,65.99
2016-10-18T08:54:15.341Z,66.5
2016-10-18T08:55:25.002Z,66.12
2016-10-18T08:56:34.994Z,66.31
2016-10-18T08:57:44.975Z,66.5
2016-10-18T08:58:55.267Z,66.12
2016-10-18T09:00:05.563Z,66.31
2016-10-18T09:01:15.837Z,66.31
2016-10-18T09:02:25.852Z,66.12
2016-10-18T09:03:35.849Z,66.22
2016-10-18T09:04:45.827Z,66.41
2016-10-18T09:05:55.812Z,66.31
2016-10-18T09:07:05.779Z,66.31
2016-10-18T09:08:16.065Z,66.12
2016-10-18T09:09:26.048Z,65.93
2016-10-18T09:10:35.708Z,65.93
2016-10-18T09:11:46.030Z,65.83
2016-10-18T09:12:56.313Z,65.64
2016-10-18T09:14:06.589Z,65.74
2016-10-18T09:15:16.576Z,65.64
2016-10-18T09:16:26.884Z,65.74
2016-10-18T09:17:37.178Z,66.12
2016-10-18T09:18:47.466Z,66.12
2016-10-18T09:19:57.752Z,65.93
2016-10-18T09:21:07.726Z,66.22
2016-10-18T09:22:18.004Z,66.5
2016-10-18T09:23:27.384Z,66.5
2016-10-18T09:24:37.060Z,66.69
2016-10-18T09:25:47.401Z,66.22
2016-10-18T09:26:57.398Z,66.31
2016-10-18T09:28:07.692Z,66.41
2016-10-18T09:29:17.349Z,66.22
2016-10-18T09:30:27.374Z,66.41
2016-10-18T09:31:37.348Z,66.38
2016-10-18T09:32:47.659Z,66.28
2016-10-18T09:33:57.668Z,66.28
2016-10-18T09:35:07.952Z,66.75
2016-10-18T09:36:17.630Z,66.88
2016-10-18T09:37:27.615Z,66.31
2016-10-18T09:38:37.592Z,66.18
2016-10-18T09:39:47.583Z,66.22
2016-10-18T09:40:57.574Z,66.12
2016-10-18T09:42:07.548Z,66.18
2016-10-18T09:43:17.529Z,66.22
2016-10-18T09:44:27.519Z,66.6
2016-10-18T09:45:37.808Z,66.66
2016-10-18T09:46:48.101Z,66.09
2016-10-18T09:47:57.812Z,66.28
2016-10-18T09:49:08.085Z,66.18
2016-10-18T09:50:18.369Z,66.56
2016-10-18T09:51:27.735Z,66.56
2016-10-18T09:52:38.025Z,66.38
2016-10-18T09:53:48.004Z,66.41
2016-10-18T09:54:57.987Z,66.41
2016-10-18T09:56:08.321Z,66.47
2016-10-18T09:57:18.314Z,66.56
2016-10-18T09:58:28.277Z,66.31
2016-10-18T09:59:38.808Z,66.28
2016-10-18T10:00:49.103Z,65.99
2016-10-18T10:01:59.091Z,67.04
2016-10-18T10:03:08.763Z,65.99
2016-10-18T10:04:18.451Z,66.66
2016-10-18T10:05:28.749Z,66.85
2016-10-18T10:06:38.737Z,66.09
2016-10-18T10:07:48.740Z,66.09
2016-10-18T10:08:58.143Z,66.31
2016-10-18T10:10:08.505Z,66.41
2016-10-18T10:11:18.869Z,66.31
2016-10-18T10:12:28.869Z,66.31
2016-10-18T10:13:38.547Z,66.5
2016-10-18T10:14:48.549Z,66.31
2016-10-18T10:15:58.564Z,66.47
2016-10-18T10:17:08.269Z,66.31
2016-10-18T10:18:19.291Z,66.31
2016-10-18T10:19:35.935Z,66.88
2016-10-18T10:20:52.372Z,66.56
2016-10-18T10:22:06.387Z,66.6
2016-10-18T10:23:17.304Z,66.69
2016-10-18T10:24:27.637Z,66.31
2016-10-18T10:25:38.324Z,66.22
2016-10-18T10:26:48.808Z,66.41
2016-10-18T10:27:58.818Z,66.28
2016-10-18T10:29:08.832Z,66.41
2016-10-18T10:30:19.170Z,66.69
2016-10-18T10:31:29.580Z,66.31
2016-10-18T10:32:39.281Z,66.02
2016-10-18T10:33:49.591Z,66.5
2016-10-18T10:35:00.435Z,66.12
2016-10-18T10:36:12.499Z,66.12
2016-10-18T10:37:22.826Z,66.31
2016-10-18T10:38:33.102Z,65.93
2016-10-18T10:39:43.389Z,65.55
2016-10-18T10:40:53.687Z,65.74
2016-10-18T10:42:03.973Z,65.83
2016-10-18T10:43:13.654Z,65.96
2016-10-18T10:44:23.957Z,66.25
2016-10-18T10:45:34.302Z,65.96
2016-10-18T10:46:44.280Z,65.87
2016-10-18T10:47:54.267Z,65.96
2016-10-18T10:49:04.568Z,66.15
2016-10-18T10:50:14.255Z,65.67
2016-10-18T10:51:24.579Z,65.96
2016-10-18T10:52:34.570Z,65.87
2016-10-18T10:53:44.655Z,65.96
2016-10-18T10:54:54.780Z,65.87
2016-10-18T10:56:05.084Z,65.48
2016-10-18T10:57:15.380Z,65.48
2016-10-18T10:58:25.377Z,65.58
2016-10-18T10:59:35.067Z,66.25
2016-10-18T11:00:45.361Z,66.06
2016-10-18T11:01:55.651Z,66.35
2016-10-18T11:03:05.018Z,66.25
2016-10-18T11:04:15.304Z,66.35
2016-10-18T11:05:25.287Z,66.53
2016-10-18T11:06:35.571Z,66.53
2016-10-18T11:07:45.579Z,66.5
2016-10-18T11:08:55.901Z,66.22
2016-10-18T11:10:06.201Z,66.88
2016-10-18T11:11:16.192Z,66.88
2016-10-18T11:12:26.479Z,66.41
2016-10-18T11:13:36.782Z,66.41
2016-10-18T11:14:47.072Z,66.31
2016-10-18T11:15:57.080Z,66.78
2016-10-18T11:17:07.371Z,66.31
2016-10-18T11:18:17.040Z,66.22
2016-10-18T11:19:27.037Z,66.12
2016-10-18T11:20:36.416Z,66.6
2016-10-18T11:21:46.703Z,66.31
2016-10-18T11:22:56.738Z,66.31
2016-10-18T11:24:06.725Z,66.5
2016-10-18T11:25:16.693Z,66.22
2016-10-18T11:26:27.023Z,66.5
2016-10-18T11:27:37.006Z,66.5
2016-10-18T11:28:47.293Z,66.6
2016-10-18T11:29:57.590Z,66.41
2016-10-18T11:31:07.584Z,66.6
2016-10-18T11:32:17.301Z,66.31
2016-10-18T11:33:27.072Z,66.78
2016-10-18T11:34:37.196Z,66.31
2016-10-18T11:35:47.478Z,66.5
2016-10-18T11:36:57.788Z,66.69
2016-10-18T11:38:08.088Z,66.31
2016-10-18T11:39:18.082Z,66.12
2016-10-18T11:40:27.763Z,66.5
2016-10-18T11:41:37.983Z,66.12
2016-10-18T11:42:48.274Z,66.02
2016-10-18T11:43:58.576Z,66.31
2016-10-18T11:45:07.965Z,66.12
2016-10-18T11:46:17.993Z,66.12
2016-10-18T11:47:27.984Z,66.12
2016-10-18T11:48:37.989Z,66.5
2016-10-18T11:49:48.016Z,66.22
2016-10-18T11:50:58.013Z,66.22
2016-10-18T11:52:08.306Z,66.22
2016-10-18T11:53:18.312Z,66.5
2016-10-18T11:54:28.304Z,66.5
2016-10-18T11:55:38.609Z,66.69
2016-10-18T11:56:48.297Z,66.69
2016-10-18T11:57:58.593Z,66.41
2016-10-18T11:59:08.890Z,66.41
2016-10-18T12:00:19.423Z,66.5
2016-10-18T12:01:29.452Z,66.41
2016-10-18T12:02:39.472Z,66.5
2016-10-18T12:03:49.758Z,66.41
2016-10-18T12:04:59.479Z,66.22
2016-10-18T12:06:09.816Z,66.31
2016-10-18T12:07:20.109Z,66.31
2016-10-18T12:08:30.395Z,66.69
2016-10-18T12:09:40.384Z,66.41
2016-10-18T12:10:50.699Z,66.31
2016-10-18T12:12:00.994Z,66.98
2016-10-18T12:13:11.291Z,66.88
2016-10-18T12:14:21.279Z,66.88
2016-10-18T12:15:31.578Z,66.5
2016-10-18T12:16:41.854Z,66.88
2016-10-18T12:17:52.149Z,66.12
2016-10-18T12:19:02.449Z,66.31
2016-10-18T12:20:12.796Z,66.41
2016-10-18T12:21:23.095Z,66.69
2016-10-18T12:22:33.384Z,66.5
2016-10-18T12:23:43.368Z,66.69
2016-10-18T12:24:53.683Z,66.69
2016-10-18T12:26:03.965Z,66.41
2016-10-18T12:27:13.632Z,66.69
2016-10-18T12:28:23.924Z,66.69
2016-10-18T12:29:34.214Z,66.41
2016-10-18T12:30:44.526Z,66.69
2016-10-18T12:31:53.899Z,66.69
2016-10-18T12:33:04.239Z,66.31
2016-10-18T12:34:13.607Z,66.31
2016-10-18T12:35:23.883Z,66.22
2016-10-18T12:36:33.873Z,66.15
2016-10-18T12:37:44.170Z,66.02
2016-10-18T12:38:54.462Z,66.31
2016-10-18T12:40:04.196Z,66.41
2016-10-18T12:41:13.878Z,66.31
2016-10-18T12:42:23.846Z,66.69
2016-10-18T12:43:34.167Z,66.6
2016-10-18T12:44:44.181Z,66.41
2016-10-18T12:45:54.419Z,66.5
2016-10-18T12:47:04.407Z,66.06
2016-10-18T12:48:13.814Z,66.35
2016-10-18T12:49:24.115Z,66.25
2016-10-18T12:50:34.094Z,66.15
2016-10-18T12:51:44.403Z,66.15
2016-10-18T12:52:54.692Z,66.35
2016-10-18T12:54:04.986Z,66.41
2016-10-18T12:55:15.273Z,66.12
2016-10-18T12:56:25.586Z,66.41
2016-10-18T12:57:35.267Z,66.35
2016-10-18T12:58:45.620Z,66.35
2016-10-18T12:59:55.942Z,66.35
2016-10-18T13:01:06.247Z,65.87
2016-10-18T13:02:16.563Z,65.96
2016-10-18T13:03:26.550Z,65.96
2016-10-18T13:04:36.853Z,66.06
2016-10-18T13:05:47.144Z,66.25
2016-10-18T13:06:57.448Z,66.06
2016-10-18T13:08:07.454Z,65.96
2016-10-18T13:09:17.435Z,66.06
2016-10-18T13:10:27.733Z,66.35
2016-10-18T13:11:38.055Z,66.35
2016-10-18T13:12:48.368Z,66.44
2016-10-18T13:13:58.381Z,66.44
2016-10-18T13:15:08.678Z,66.53
2016-10-18T13:16:18.666Z,66.44
2016-10-18T13:17:28.980Z,66.63
2016-10-18T13:18:38.982Z,66.53
2016-10-18T13:19:49.014Z,66.63
2016-10-18T13:20:59.315Z,66.44
2016-10-18T13:22:09.593Z,66.72
2016-10-18T13:23:19.890Z,66.44
2016-10-18T13:24:29.894Z,66.72
2016-10-18T13:25:40.214Z,66.44
2016-10-18T13:26:49.612Z,66.72
2016-10-18T13:27:59.907Z,66.44
2016-10-18T13:29:09.354Z,66.44
2016-10-18T13:30:19.656Z,66.53
2016-10-18T13:31:29.951Z,66.44
2016-10-18T13:32:40.222Z,66.63
2016-10-18T13:33:49.932Z,66.35
2016-10-18T13:34:59.942Z,66.35
2016-10-18T13:36:09.643Z,66.35
2016-10-18T13:37:19.958Z,66.72
2016-10-18T13:38:29.944Z,66.63
2016-10-18T13:39:39.926Z,66.35
2016-10-18T13:40:49.894Z,66.44
2016-10-18T13:41:59.879Z,66.41
2016-10-18T13:43:09.555Z,65.96
2016-10-18T13:44:19.233Z,67.11
2016-10-18T13:45:29.243Z,66.44
2016-10-18T13:46:38.605Z,66.35
2016-10-18T13:47:48.904Z,66.82
2016-10-18T13:48:58.579Z,65.96
2016-10-18T13:50:08.245Z,66.35
2016-10-18T13:51:17.619Z,66.35
2016-10-18T13:52:27.910Z,66.22
2016-10-18T13:53:38.277Z,66.31
2016-10-18T13:54:48.288Z,66.92
2016-10-18T13:55:58.268Z,66.53
2016-10-18T13:57:08.608Z,66.82
2016-10-18T13:58:18.596Z,66.6
2016-10-18T13:59:28.899Z,66.92
2016-10-18T14:00:39.193Z,66.63
2016-10-18T14:01:49.193Z,66.92
2016-10-18T14:02:59.499Z,66.25
2016-10-18T14:04:09.496Z,66.06
2016-10-18T14:05:19.789Z,66.06
2016-10-18T14:06:30.083Z,66.5
2016-10-18T14:07:40.081Z,66.78
2016-10-18T14:08:50.367Z,66.88
2016-10-18T14:10:00.667Z,65.93
2016-10-18T14:11:10.962Z,66.88
2016-10-18T14:12:20.989Z,66.31
2016-10-18T14:13:30.663Z,66.88
2016-10-18T14:14:40.648Z,66.88
2016-10-18T14:15:50.338Z,66.31
2016-10-18T14:17:00.331Z,66.12
2016-10-18T14:18:10.410Z,66.31
2016-10-18T14:19:20.717Z,66.31
2016-10-18T14:20:30.748Z,66.31
2016-10-18T14:21:40.735Z,66.31
2016-10-18T14:22:51.033Z,66.5
2016-10-18T14:24:00.697Z,66.22
2016-10-18T14:25:11.004Z,66.25
2016-10-18T14:26:21.316Z,66.15
2016-10-18T14:27:31.296Z,66.25
2016-10-18T14:28:41.280Z,67.01
2016-10-18T14:29:51.589Z,66.92
2016-10-18T14:31:01.574Z,66.44
2016-10-18T14:32:11.562Z,66.72
2016-10-18T14:33:21.546Z,66.53
2016-10-18T14:34:31.871Z,66.25
2016-10-18T14:35:42.143Z,66.44
2016-10-18T14:36:52.432Z,66.35
2016-10-18T14:38:02.725Z,66.6
2016-10-18T14:39:13.059Z,66.15
2016-10-18T14:40:23.034Z,66.78
2016-10-18T14:41:33.027Z,66.5
2016-10-18T14:42:43.027Z,66.35
2016-10-18T14:43:53.016Z,66.92
2016-10-18T14:45:03.318Z,66.31
2016-10-18T14:46:13.319Z,66.15
2016-10-18T14:47:23.303Z,66.31
2016-10-18T14:48:33.288Z,66.31
2016-10-18T14:49:42.964Z,66.72
2016-10-18T14:50:53.287Z,66.35
2016-10-18T14:52:03.579Z,66.35
2016-10-18T14:53:13.915Z,66.15
2016-10-18T14:54:23.920Z,66.35
2016-10-18T14:55:33.609Z,66.53
2016-10-18T14:56:43.607Z,67.01
2016-10-18T14:57:53.910Z,66.35
2016-10-18T14:59:04.220Z,66.25
2016-10-18T15:00:13.913Z,66.92
2016-10-18T15:01:24.226Z,66.25
2016-10-18T15:02:34.231Z,66.35
2016-10-18T15:03:43.919Z,66.25
2016-10-18T15:04:54.227Z,66.35
2016-10-18T15:06:03.921Z,66.44
2016-10-18T15:07:13.620Z,66.15
2016-10-18T15:08:23.963Z,66.06
2016-10-18T15:09:34.287Z,66.35
2016-10-18T15:10:44.001Z,66.15
2016-10-18T15:11:53.983Z,66.15
2016-10-18T15:13:03.693Z,66.72
2016-10-18T15:14:14.002Z,66.44
2016-10-18T15:15:24.563Z,66.72
2016-10-18T15:16:34.271Z,66.06
2016-10-18T15:17:44.264Z,66.35
2016-10-18T15:18:54.573Z,66.25
2016-10-18T15:20:04.570Z,66.15
2016-10-18T15:21:14.893Z,66.35
2016-10-18T15:22:24.883Z,66.92
2016-10-18T15:23:34.888Z,66.25
2016-10-18T15:24:45.193Z,66.44
2016-10-18T15:25:54.881Z,66.44
2016-10-18T15:27:05.166Z,66.63
2016-10-18T15:28:15.164Z,66.15
2016-10-18T15:29:24.866Z,66.44
2016-10-18T15:30:35.188Z,66.06
2016-10-18T15:31:45.503Z,66.15
2016-10-18T15:32:55.803Z,66.44
2016-10-18T15:34:06.347Z,66.44
2016-10-18T15:35:16.661Z,66.44
2016-10-18T15:36:26.983Z,67.01
2016-10-18T15:37:37.011Z,66.78